sensor_id;sensor_type;location;lat;lon;timestamp;pressure;altitude;pressure_sealevel;temperature;humidity
39309;BME280;26019;47.510;19.122;2023-05-20T00:09:33;100662.22;;;13.84;100.00
39309;BME280;26019;47.510;19.122;2023-05-20T00:19:35;100641.53;;;13.78;100.00
39309;BME280;26019;47.510;19.122;2023-05-20T00:29:36;100629.69;;;13.57;100.00
39309;BME280;26019;47.510;19.122;2023-05-20T00:39:38;100631.28;;;13.66;100.00
39309;BME280;26019;47.510;19.122;2023-05-20T00:49:41;100640.81;;;13.68;100.00
39309;BME280;26019;47.510;19.122;2023-05-20T00:59:43;100637.50;;;13.55;100.00
39309;BME280;26019;47.510;19.122;2023-05-20T01:09:45;100634.34;;;13.30;100.00
39309;BME280;26019;47.510;19.122;2023-05-20T01:19:47;100639.75;;;13.10;100.00
39309;BME280;26019;47.510;19.122;2023-05-20T01:29:53;100645.94;;;12.96;100.00
39309;BME280;26019;47.510;19.122;2023-05-20T01:39:57;100653.75;;;12.95;100.00
39309;BME280;26019;47.510;19.122;2023-05-20T01:49:59;100668.56;;;12.83;100.00
39309;BME280;26019;47.510;19.122;2023-05-20T02:00:01;100667.72;;;12.83;100.00
39309;BME280;26019;47.510;19.122;2023-05-20T02:10:04;100673.56;;;13.00;100.00
39309;BME280;26019;47.510;19.122;2023-05-20T02:20:06;100671.84;;;13.01;100.00
39309;BME280;26019;47.510;19.122;2023-05-20T02:30:08;100676.19;;;12.97;100.00
39309;BME280;26019;47.510;19.122;2023-05-20T02:40:11;100671.13;;;12.88;100.00
39309;BME280;26019;47.510;19.122;2023-05-20T02:50:13;100660.88;;;12.74;100.00
39309;BME280;26019;47.510;19.122;2023-05-20T03:00:15;100673.94;;;12.60;100.00
39309;BME280;26019;47.510;19.122;2023-05-20T03:10:17;100690.34;;;12.62;100.00
39309;BME280;26019;47.510;19.122;2023-05-20T03:20:19;100686.09;;;12.58;100.00
39309;BME280;26019;47.510;19.122;2023-05-20T03:30:21;100695.59;;;12.54;100.00
39309;BME280;26019;47.510;19.122;2023-05-20T03:40:24;100693.81;;;12.63;100.00
39309;BME280;26019;47.510;19.122;2023-05-20T03:50:26;100699.78;;;12.73;100.00
39309;BME280;26019;47.510;19.122;2023-05-20T04:00:27;100700.56;;;12.79;100.00
39309;BME280;26019;47.510;19.122;2023-05-20T04:10:32;100703.84;;;13.00;100.00
39309;BME280;26019;47.510;19.122;2023-05-20T04:20:34;100719.97;;;13.28;100.00
39309;BME280;26019;47.510;19.122;2023-05-20T04:30:36;100727.63;;;13.46;100.00
39309;BME280;26019;47.510;19.122;2023-05-20T04:40:38;100723.88;;;13.70;100.00
39309;BME280;26019;47.510;19.122;2023-05-20T04:50:40;100727.00;;;13.95;100.00
39309;BME280;26019;47.510;19.122;2023-05-20T05:00:43;100723.94;;;14.28;100.00
39309;BME280;26019;47.510;19.122;2023-05-20T05:10:45;100738.78;;;14.81;100.00
39309;BME280;26019;47.510;19.122;2023-05-20T05:20:47;100733.75;;;15.18;100.00
39309;BME280;26019;47.510;19.122;2023-05-20T05:30:49;100739.69;;;15.71;100.00
39309;BME280;26019;47.510;19.122;2023-05-20T05:40:52;100736.06;;;16.20;100.00
39309;BME280;26019;47.510;19.122;2023-05-20T05:50:54;100752.13;;;16.77;100.00
39309;BME280;26019;47.510;19.122;2023-05-20T06:00:55;100745.56;;;17.30;100.00
39309;BME280;26019;47.510;19.122;2023-05-20T06:10:57;100751.13;;;17.81;100.00
39309;BME280;26019;47.510;19.122;2023-05-20T06:20:59;100753.84;;;18.36;100.00
39309;BME280;26019;47.510;19.122;2023-05-20T06:31:01;100751.25;;;18.63;100.00
39309;BME280;26019;47.510;19.122;2023-05-20T06:41:02;100755.19;;;19.03;100.00
39309;BME280;26019;47.510;19.122;2023-05-20T06:51:07;100743.56;;;19.60;97.95
39309;BME280;26019;47.510;19.122;2023-05-20T07:01:09;100740.84;;;19.87;92.10
39309;BME280;26019;47.510;19.122;2023-05-20T07:11:12;100744.16;;;20.36;87.28
39309;BME280;26019;47.510;19.122;2023-05-20T07:21:13;100725.94;;;20.54;83.11
39309;BME280;26019;47.510;19.122;2023-05-20T07:31:15;100711.72;;;20.82;84.06
39309;BME280;26019;47.510;19.122;2023-05-20T07:41:18;100721.19;;;20.86;79.83
39309;BME280;26019;47.510;19.122;2023-05-20T07:51:20;100727.63;;;21.58;76.04
39309;BME280;26019;47.510;19.122;2023-05-20T08:01:21;100709.31;;;21.95;77.97
39309;BME280;26019;47.510;19.122;2023-05-20T08:11:23;100713.22;;;22.60;72.26
39309;BME280;26019;47.510;19.122;2023-05-20T08:21:26;100714.91;;;22.96;66.64
39309;BME280;26019;47.510;19.122;2023-05-20T08:31:29;100689.63;;;23.43;66.96
39309;BME280;26019;47.510;19.122;2023-05-20T08:41:31;100683.78;;;24.02;63.26
39309;BME280;26019;47.510;19.122;2023-05-20T08:51:35;100675.28;;;23.81;62.84
39309;BME280;26019;47.510;19.122;2023-05-20T09:01:40;100671.34;;;23.88;62.26
39309;BME280;26019;47.510;19.122;2023-05-20T09:11:44;100665.09;;;24.97;60.87
39309;BME280;26019;47.510;19.122;2023-05-20T09:21:46;100651.28;;;27.72;48.37
39309;BME280;26019;47.510;19.122;2023-05-20T09:31:48;100645.63;;;30.18;40.53
39309;BME280;26019;47.510;19.122;2023-05-20T09:42:00;100631.13;;;29.78;39.20
39309;BME280;26019;47.510;19.122;2023-05-20T09:52:06;100609.22;;;32.97;35.07
39309;BME280;26019;47.510;19.122;2023-05-20T10:02:08;100599.06;;;32.62;32.71
39309;BME280;26019;47.510;19.122;2023-05-20T10:22:28;100587.03;;;33.87;28.06
39309;BME280;26019;47.510;19.122;2023-05-20T10:32:31;100573.03;;;35.32;25.16
39309;BME280;26019;47.510;19.122;2023-05-20T10:42:34;100568.31;;;36.16;24.28
39309;BME280;26019;47.510;19.122;2023-05-20T10:52:38;100559.09;;;36.11;23.28
39309;BME280;26019;47.510;19.122;2023-05-20T11:02:40;100547.94;;;36.30;22.82
39309;BME280;26019;47.510;19.122;2023-05-20T11:12:43;100549.44;;;36.50;22.12
39309;BME280;26019;47.510;19.122;2023-05-20T11:22:48;100537.16;;;36.55;23.77
39309;BME280;26019;47.510;19.122;2023-05-20T11:33:00;100530.06;;;37.79;21.66
39309;BME280;26019;47.510;19.122;2023-05-20T11:43:03;100530.84;;;36.23;23.10
39309;BME280;26019;47.510;19.122;2023-05-20T11:53:10;100531.72;;;38.18;21.47
39309;BME280;26019;47.510;19.122;2023-05-20T12:03:17;100523.25;;;37.91;21.25
39309;BME280;26019;47.510;19.122;2023-05-20T12:13:19;100526.69;;;38.15;20.79
39309;BME280;26019;47.510;19.122;2023-05-20T12:23:21;100518.47;;;38.68;21.18
39309;BME280;26019;47.510;19.122;2023-05-20T12:33:24;100496.34;;;39.38;20.42
39309;BME280;26019;47.510;19.122;2023-05-20T12:43:26;100510.38;;;39.05;20.20
39309;BME280;26019;47.510;19.122;2023-05-20T12:53:29;100491.09;;;38.72;21.37
39309;BME280;26019;47.510;19.122;2023-05-20T13:03:32;100484.63;;;38.88;20.29
39309;BME280;26019;47.510;19.122;2023-05-20T13:13:34;100477.56;;;38.87;19.67
39309;BME280;26019;47.510;19.122;2023-05-20T13:23:35;100454.66;;;40.94;19.01
39309;BME280;26019;47.510;19.122;2023-05-20T13:33:37;100461.22;;;40.57;18.97
39309;BME280;26019;47.510;19.122;2023-05-20T13:43:42;100447.97;;;40.89;19.01
39309;BME280;26019;47.510;19.122;2023-05-20T13:53:43;100445.09;;;38.43;19.96
39309;BME280;26019;47.510;19.122;2023-05-20T14:03:45;100436.00;;;38.66;20.61
39309;BME280;26019;47.510;19.122;2023-05-20T14:13:47;100436.22;;;35.22;24.44
39309;BME280;26019;47.510;19.122;2023-05-20T14:23:49;100423.97;;;38.47;18.90
39309;BME280;26019;47.510;19.122;2023-05-20T14:33:50;100411.56;;;39.18;18.99
39309;BME280;26019;47.510;19.122;2023-05-20T14:43:58;100407.91;;;42.63;16.46
39309;BME280;26019;47.510;19.122;2023-05-20T14:54:00;100406.31;;;38.66;18.06
39309;BME280;26019;47.510;19.122;2023-05-20T15:04:04;100404.06;;;35.86;21.25
39309;BME280;26019;47.510;19.122;2023-05-20T15:14:06;100393.00;;;37.08;21.68
39309;BME280;26019;47.510;19.122;2023-05-20T15:24:08;100381.34;;;36.84;22.70
39309;BME280;26019;47.510;19.122;2023-05-20T15:34:11;100370.72;;;33.71;27.23
39309;BME280;26019;47.510;19.122;2023-05-20T15:44:14;100363.84;;;32.43;29.63
39309;BME280;26019;47.510;19.122;2023-05-20T15:54:16;100360.72;;;32.66;29.15
39309;BME280;26019;47.510;19.122;2023-05-20T16:04:20;100360.09;;;33.53;27.56
39309;BME280;26019;47.510;19.122;2023-05-20T16:14:22;100377.84;;;33.54;26.93
39309;BME280;26019;47.510;19.122;2023-05-20T16:24:25;100362.38;;;34.93;24.91
39309;BME280;26019;47.510;19.122;2023-05-20T16:34:26;100354.94;;;33.33;26.25
39309;BME280;26019;47.510;19.122;2023-05-20T16:44:28;100362.78;;;33.08;26.58
39309;BME280;26019;47.510;19.122;2023-05-20T16:54:30;100363.16;;;32.41;28.32
39309;BME280;26019;47.510;19.122;2023-05-20T17:04:33;100365.84;;;30.28;30.08
39309;BME280;26019;47.510;19.122;2023-05-20T17:14:34;100370.00;;;30.01;31.44
39309;BME280;26019;47.510;19.122;2023-05-20T17:24:37;100378.84;;;27.71;34.77
39309;BME280;26019;47.510;19.122;2023-05-20T17:34:40;100376.72;;;25.68;38.71
39309;BME280;26019;47.510;19.122;2023-05-20T17:44:41;100379.72;;;24.68;40.88
39309;BME280;26019;47.510;19.122;2023-05-20T17:54:43;100377.78;;;23.70;42.27
39309;BME280;26019;47.510;19.122;2023-05-20T18:04:46;100369.06;;;23.08;43.70
39309;BME280;26019;47.510;19.122;2023-05-20T18:14:48;100366.88;;;22.52;46.02
39309;BME280;26019;47.510;19.122;2023-05-20T18:24:50;100371.00;;;22.25;48.24
39309;BME280;26019;47.510;19.122;2023-05-20T18:34:52;100370.97;;;21.57;50.54
39309;BME280;26019;47.510;19.122;2023-05-20T18:44:55;100390.69;;;21.13;54.88
39309;BME280;26019;47.510;19.122;2023-05-20T18:54:57;100388.59;;;20.64;61.69
39309;BME280;26019;47.510;19.122;2023-05-20T19:05:00;100386.28;;;20.20;68.86
39309;BME280;26019;47.510;19.122;2023-05-20T19:15:02;100396.09;;;19.95;75.07
39309;BME280;26019;47.510;19.122;2023-05-20T19:25:05;100398.94;;;19.48;84.93
39309;BME280;26019;47.510;19.122;2023-05-20T19:35:07;100411.78;;;19.33;90.06
39309;BME280;26019;47.510;19.122;2023-05-20T19:45:11;100407.63;;;19.05;96.68
39309;BME280;26019;47.510;19.122;2023-05-20T19:55:14;100410.72;;;18.71;100.00
39309;BME280;26019;47.510;19.122;2023-05-20T20:05:18;100411.41;;;18.28;100.00
39309;BME280;26019;47.510;19.122;2023-05-20T20:15:24;100403.00;;;18.20;100.00
39309;BME280;26019;47.510;19.122;2023-05-20T20:25:29;100402.63;;;18.05;100.00
39309;BME280;26019;47.510;19.122;2023-05-20T20:35:35;100397.53;;;18.02;100.00
39309;BME280;26019;47.510;19.122;2023-05-20T20:45:39;100399.38;;;17.73;100.00
39309;BME280;26019;47.510;19.122;2023-05-20T20:55:41;100396.34;;;17.59;100.00
39309;BME280;26019;47.510;19.122;2023-05-20T21:05:43;100388.78;;;17.51;100.00
39309;BME280;26019;47.510;19.122;2023-05-20T21:15:45;100399.09;;;17.29;100.00
39309;BME280;26019;47.510;19.122;2023-05-20T21:25:48;100396.28;;;17.08;100.00
39309;BME280;26019;47.510;19.122;2023-05-20T21:35:50;100400.78;;;17.03;100.00
39309;BME280;26019;47.510;19.122;2023-05-20T21:45:52;100382.19;;;16.85;100.00
39309;BME280;26019;47.510;19.122;2023-05-20T21:55:54;100386.00;;;16.73;100.00
39309;BME280;26019;47.510;19.122;2023-05-20T22:05:56;100392.78;;;16.51;100.00
39309;BME280;26019;47.510;19.122;2023-05-20T22:15:58;100382.66;;;16.40;100.00
39309;BME280;26019;47.510;19.122;2023-05-20T22:26:00;100391.63;;;16.30;100.00
39309;BME280;26019;47.510;19.122;2023-05-20T22:36:02;100398.22;;;16.11;100.00
39309;BME280;26019;47.510;19.122;2023-05-20T22:46:04;100401.94;;;16.03;100.00
39309;BME280;26019;47.510;19.122;2023-05-20T22:56:06;100405.09;;;15.81;100.00
39309;BME280;26019;47.510;19.122;2023-05-20T23:06:08;100398.91;;;15.87;100.00
39309;BME280;26019;47.510;19.122;2023-05-20T23:16:11;100406.22;;;15.71;100.00
39309;BME280;26019;47.510;19.122;2023-05-20T23:26:14;100401.09;;;15.67;100.00
39309;BME280;26019;47.510;19.122;2023-05-20T23:36:16;100403.50;;;16.08;100.00
39309;BME280;26019;47.510;19.122;2023-05-20T23:46:20;100403.91;;;15.94;100.00
39309;BME280;26019;47.510;19.122;2023-05-20T23:56:22;100384.50;;;15.72;100.00
